Time;durP1;ratioP1;P1;durP2;ratioP2;P2;SDS_P1;SDS_P2;PMS_P1;PMS_P2;Temp;Humidity;BMP_temperature;BMP_pressure;BME280_temperature;BME280_humidity;BME280_pressure;Samples;Min_cycle;Max_cycle;Signal;HPM_P1;HPM_P2
2022/09/16 00:00:14;;;;;;;8.50;2.92;;;;;;;18.86;73.58;97761.09;4503544;31;20084;-83
2022/09/16 00:02:39;;;;;;;8.35;2.92;;;;;;;18.61;73.40;97766.28;4488943;31;20117;-83
2022/09/16 00:05:05;;;;;;;8.27;2.97;;;;;;;18.83;73.16;97764.94;4503343;31;20157;-83
2022/09/16 00:07:30;;;;;;;8.65;3.53;;;;;;;19.03;71.44;97762.00;4489254;31;20470;-83
2022/09/16 00:09:56;;;;;;;8.35;2.92;;;;;;;18.79;72.13;97760.87;4503578;31;20471;-84
2022/09/16 00:12:21;;;;;;;7.72;2.83;;;;;;;18.78;71.28;97772.56;4503511;31;20088;-83
2022/09/16 00:14:47;;;;;;;8.63;2.85;;;;;;;18.85;70.43;97772.75;4488997;31;20127;-84
2022/09/16 00:17:12;;;;;;;6.25;2.53;;;;;;;18.93;70.01;97770.16;4503558;31;20111;-83
2022/09/16 00:19:38;;;;;;;6.05;2.20;;;;;;;18.81;70.52;97776.75;4503452;31;20096;-83
2022/09/16 00:22:04;;;;;;;6.30;2.45;;;;;;;18.73;70.59;97787.38;4503269;31;20139;-83
2022/09/16 00:24:29;;;;;;;8.63;2.70;;;;;;;19.03;69.63;97786.84;4503375;31;20087;-83
2022/09/16 00:26:55;;;;;;;7.07;2.80;;;;;;;18.69;70.85;97786.84;4503402;31;20136;-83
2022/09/16 00:29:20;;;;;;;8.57;3.00;;;;;;;18.86;70.66;97790.47;4503288;31;20440;-83
2022/09/16 00:31:45;;;;;;;8.65;3.25;;;;;;;18.73;70.71;97792.69;4502766;31;20136;-83
2022/09/16 00:34:11;;;;;;;8.23;3.17;;;;;;;18.44;72.49;97797.38;4502783;31;20088;-83
2022/09/16 00:36:36;;;;;;;8.57;2.92;;;;;;;18.56;71.64;97797.97;4489053;31;20119;-83
2022/09/16 00:39:02;;;;;;;8.93;2.90;;;;;;;18.42;72.41;97799.38;4503194;31;20080;-83
2022/09/16 00:41:31;;;;;;;8.00;2.80;;;;;;;18.32;73.23;97808.47;4488867;31;20193;-83
2022/09/16 00:44:39;;;;;;;8.40;2.85;;;;;;;18.27;73.39;97801.78;4503368;31;20104;-83
2022/09/16 00:47:05;;;;;;;8.07;3.17;;;;;;;17.91;74.87;97814.34;4423272;32;20113;-83
2022/09/16 00:49:30;;;;;;;8.77;3.22;;;;;;;18.09;74.59;97806.31;4423269;32;20093;-83
2022/09/16 00:52:00;;;;;;;8.70;3.35;;;;;;;18.40;72.96;97798.69;4410501;32;20154;-83
2022/09/16 00:54:27;;;;;;;6.20;2.50;;;;;;;18.01;74.23;97806.25;4423148;32;20135;-83
2022/09/16 00:56:54;;;;;;;10.55;3.10;;;;;;;17.97;74.13;97800.41;4423043;32;20106;-83
2022/09/16 00:59:25;;;;;;;14.40;3.28;;;;;;;18.07;73.62;97806.47;4410436;32;20089;-83
2022/09/16 01:01:52;;;;;;;8.10;2.80;;;;;;;18.22;72.61;97797.91;4423006;32;20164;-82
2022/09/16 01:04:26;;;;;;;8.23;3.00;;;;;;;17.90;74.48;97793.19;4410126;32;20179;-83
2022/09/16 01:06:52;;;;;;;8.10;2.78;;;;;;;18.03;73.52;97799.78;4410236;32;20552;-83
2022/09/16 01:09:20;;;;;;;6.53;2.28;;;;;;;18.14;72.83;97796.03;4410149;32;20117;-83
2022/09/16 01:11:45;;;;;;;7.07;2.22;;;;;;;18.16;72.47;97801.22;4422853;32;20082;-83
2022/09/16 01:17:19;;;;;;;6.93;2.50;;;;;;;18.00;72.96;97794.78;4422934;32;20144;-82
2022/09/16 01:19:50;;;;;;;5.80;2.10;;;;;;;17.98;72.67;97795.91;4422987;32;20089;-82
2022/09/16 01:22:57;;;;;;;6.57;2.42;;;;;;;17.94;73.01;97791.88;4422807;32;20413;-82
2022/09/16 01:25:44;;;;;;;9.07;2.30;;;;;;;17.63;72.61;97797.56;4438446;32;20156;-83
2022/09/16 01:28:33;;;;;;;8.18;2.62;;;;;;;17.68;72.76;97795.31;4438576;32;20096;-83
2022/09/16 01:31:04;;;;;;;6.90;2.45;;;;;;;17.48;73.24;97808.78;4425730;32;20093;-83
2022/09/16 01:33:57;;;;;;;6.78;2.53;;;;;;;17.83;71.17;97806.25;4425320;32;20124;-83
2022/09/16 01:36:31;;;;;;;7.22;2.70;;;;;;;18.08;69.31;97821.47;4431995;32;20135;-82
2022/09/16 01:39:50;;;;;;;6.65;2.58;;;;;;;17.93;69.23;97824.84;4438170;32;20131;-82
2022/09/16 01:42:37;;;;;;;8.93;2.78;;;;;;;17.80;69.10;97815.38;4377128;32;20442;-82
2022/09/16 01:45:27;;;;;;;8.18;2.50;;;;;;;17.47;69.39;97808.91;4376938;32;20104;-82
2022/09/16 01:48:23;;;;;;;9.25;2.97;;;;;;;17.42;70.01;97806.72;4377464;32;20106;-82
2022/09/16 01:51:18;;;;;;;8.70;2.90;;;;;;;17.69;69.33;97807.63;4376598;32;20098;-81
2022/09/16 01:53:56;;;;;;;8.85;3.03;;;;;;;17.37;70.79;97803.66;4377233;32;20473;-81
2022/09/16 01:56:23;;;;;;;8.55;3.30;;;;;;;17.68;69.76;97806.78;4377275;32;20396;-81
2022/09/16 01:58:58;;;;;;;9.82;3.12;;;;;;;17.69;69.83;97789.84;4387371;32;20152;-81
2022/09/16 02:01:43;;;;;;;9.63;3.33;;;;;;;17.64;67.41;97794.78;4410105;32;20138;-81
2022/09/16 02:04:28;;;;;;;9.32;3.00;;;;;;;17.53;67.06;97796.81;4422662;32;20153;-81
2022/09/16 02:06:55;;;;;;;8.40;2.70;;;;;;;17.66;66.97;97811.44;4409604;32;20201;-81
2022/09/16 02:09:25;;;;;;;8.48;2.97;;;;;;;17.76;64.85;97813.19;4409719;32;20427;-81
2022/09/16 02:11:53;;;;;;;9.73;2.80;;;;;;;18.16;64.21;97809.22;4422593;31;20193;-82
2022/09/16 02:14:19;;;;;;;;;;;;;;;17.90;64.70;97806.50;4488443;31;20448;-82
2022/09/16 02:16:59;;;;;;;9.38;3.25;;;;;;;17.98;64.32;97812.75;4475058;31;19975;-82
2022/09/16 02:19:33;;;;;;;9.90;3.03;;;;;;;17.86;64.34;97809.47;4502559;31;20084;-83
2022/09/16 02:22:02;;;;;;;8.43;3.22;;;;;;;17.76;64.81;97806.03;4488199;31;20100;-82
2022/09/16 02:24:29;;;;;;;8.15;3.12;;;;;;;17.77;64.74;97810.38;4502421;31;20110;-83
2022/09/16 02:26:59;;;;;;;9.60;3.20;;;;;;;17.72;65.46;97833.97;4488086;31;20088;-83
2022/09/16 02:29:26;;;;;;;10.50;4.00;;;;;;;17.60;66.06;97824.53;4488387;31;20126;-82
2022/09/16 02:31:56;;;;;;;13.48;4.53;;;;;;;17.22;67.52;97813.97;4502628;31;20155;-83
2022/09/16 02:34:28;;;;;;;10.57;4.40;;;;;;;17.07;69.22;97820.78;4502513;31;20621;-83
2022/09/16 02:36:56;;;;;;;11.05;4.43;;;;;;;17.38;68.45;97817.81;4488299;31;20083;-82
2022/09/16 02:39:28;;;;;;;12.77;5.07;;;;;;;17.18;69.25;97809.12;4502412;31;20122;-82
2022/09/16 02:41:55;;;;;;;12.52;5.12;;;;;;;16.95;70.77;97816.66;4502389;31;20097;-82
2022/09/16 02:44:23;;;;;;;11.60;4.93;;;;;;;17.24;69.06;97820.00;4488209;31;20088;-82
2022/09/16 02:46:51;;;;;;;;;;;;;;;17.38;68.48;97825.78;4488400;31;20107;-82
2022/09/16 02:49:42;;;;;;;11.45;4.28;;;;;;;17.17;68.90;97828.72;4502013;31;20284;-82
2022/09/16 02:52:50;;;;;;;10.35;4.25;;;;;;;17.26;68.46;97841.97;4488037;31;20108;-82
2022/09/16 02:55:31;;;;;;;9.15;3.50;;;;;;;17.55;67.32;97832.12;4493179;31;20496;-82
2022/09/16 02:57:56;;;;;;;10.05;3.72;;;;;;;17.52;66.39;97843.06;4503984;31;20110;-82
2022/09/16 03:00:22;;;;;;;10.32;3.47;;;;;;;17.58;65.55;97842.50;4503914;31;20100;-82
2022/09/16 03:02:48;;;;;;;9.98;3.72;;;;;;;17.55;64.95;97848.09;4489462;31;20126;-82
2022/09/16 03:05:13;;;;;;;10.25;4.05;;;;;;;17.50;65.23;97835.25;4503711;31;20170;-82
2022/09/16 03:07:40;;;;;;;11.38;4.93;;;;;;;17.05;66.12;97847.53;4504017;31;20120;-83
2022/09/16 03:10:08;;;;;;;12.93;5.07;;;;;;;16.87;67.34;97850.16;4503938;31;20123;-82
2022/09/16 03:12:48;;;;;;;12.45;4.78;;;;;;;17.24;66.59;97859.91;4489550;31;20467;-83
2022/09/16 03:15:47;;;;;;;13.52;4.97;;;;;;;17.53;65.42;97861.56;4503898;31;20115;-83
2022/09/16 03:18:21;;;;;;;13.17;5.47;;;;;;;17.37;65.48;97859.56;4503875;31;20080;-83
2022/09/16 03:20:49;;;;;;;13.05;5.05;;;;;;;17.03;66.28;97849.53;4489486;31;20161;-83
2022/09/16 03:23:32;;;;;;;11.10;4.95;;;;;;;17.25;65.81;97842.16;4503663;31;20114;-83
2022/09/16 03:26:10;;;;;;;12.50;5.03;;;;;;;17.42;65.64;97846.66;4477262;31;20145;-81
2022/09/16 03:29:00;;;;;;;13.18;5.05;;;;;;;17.32;65.42;97853.03;4503836;31;20545;-82
2022/09/16 03:31:42;;;;;;;10.90;4.47;;;;;;;17.01;65.98;97856.81;4503760;31;20092;-81
2022/09/16 03:34:26;;;;;;;11.65;4.50;;;;;;;17.24;65.70;97851.94;4503794;31;20147;-81
2022/09/16 03:37:00;;;;;;;12.20;5.32;;;;;;;17.14;65.64;97859.13;4489481;31;20088;-82
2022/09/16 03:39:26;;;;;;;12.45;5.15;;;;;;;16.87;66.56;97850.16;4503661;31;20080;-82
2022/09/16 03:41:51;;;;;;;13.00;5.45;;;;;;;17.15;66.58;97862.62;4503502;31;20123;-82
2022/09/16 03:44:16;;;;;;;14.30;5.72;;;;;;;17.03;67.39;97851.34;4503669;31;20114;-84
2022/09/16 03:46:42;;;;;;;14.57;5.90;;;;;;;16.83;68.30;97862.06;4496999;31;20101;-80
2022/09/16 03:49:08;;;;;;;12.32;5.10;;;;;;;17.00;67.81;97860.47;4469835;32;20108;-83
2022/09/16 03:51:33;;;;;;;12.45;5.45;;;;;;;17.43;66.19;97864.28;4484164;31;20503;-84
2022/09/16 03:53:58;;;;;;;12.35;5.80;;;;;;;17.43;65.48;97868.78;4485404;32;20389;-84
2022/09/16 03:56:24;;;;;;;12.48;5.62;;;;;;;17.50;65.59;97869.88;4485693;32;20088;-82
2022/09/16 03:58:50;;;;;;;14.00;5.68;;;;;;;17.27;66.33;97874.78;4485102;32;20384;-81
2022/09/16 04:01:15;;;;;;;12.45;5.72;;;;;;;17.29;66.46;97864.81;4485369;32;20092;-83
2022/09/16 04:03:41;;;;;;;13.05;5.75;;;;;;;17.14;66.93;97864.47;4485590;32;20096;-81
2022/09/16 04:06:06;;;;;;;12.65;5.82;;;;;;;17.53;65.84;97871.38;4485405;31;20227;-81
2022/09/16 04:08:32;;;;;;;13.05;5.90;;;;;;;17.66;65.68;97871.88;4471639;32;20080;-81
2022/09/16 04:10:59;;;;;;;13.30;5.72;;;;;;;17.31;66.58;97870.81;4486328;32;20134;-79
2022/09/16 04:13:27;;;;;;;13.38;5.57;;;;;;;17.47;66.60;97872.81;4470436;32;20104;-81
2022/09/16 04:15:53;;;;;;;11.93;5.80;;;;;;;17.86;65.06;97862.75;4485592;31;20479;-81
2022/09/16 04:18:18;;;;;;;15.93;6.37;;;;;;;17.56;66.40;97877.25;4485614;31;20072;-81
2022/09/16 04:20:45;;;;;;;14.23;6.60;;;;;;;17.75;65.61;97865.63;4486167;32;20092;-82
2022/09/16 04:23:10;;;;;;;13.00;6.12;;;;;;;17.82;65.75;97873.84;4471131;32;20150;-82
2022/09/16 04:25:36;;;;;;;13.48;6.03;;;;;;;18.11;64.55;97881.63;4485483;31;20101;-83
2022/09/16 04:28:01;;;;;;;13.93;5.87;;;;;;;17.78;65.54;97886.62;4484228;31;20192;-81
2022/09/16 04:30:27;;;;;;;15.07;6.32;;;;;;;18.05;64.59;97885.75;4483482;32;20120;-81
2022/09/16 04:32:53;;;;;;;13.93;6.55;;;;;;;18.07;64.23;97891.75;4486129;31;20118;-80
2022/09/16 04:35:19;;;;;;;14.82;6.50;;;;;;;18.10;64.54;97890.63;4490539;31;20096;-80
2022/09/16 04:37:45;;;;;;;14.45;5.87;;;;;;;18.04;64.41;97881.41;4467992;32;20160;-81
2022/09/16 04:40:10;;;;;;;14.02;6.35;;;;;;;17.78;65.27;97880.47;4471188;32;20146;-81
2022/09/16 04:42:36;;;;;;;15.23;6.80;;;;;;;17.83;65.43;97878.19;4485875;32;20439;-82
2022/09/16 04:45:01;;;;;;;14.68;6.37;;;;;;;18.00;64.64;97879.19;4482406;32;20459;-81
2022/09/16 04:47:28;;;;;;;14.35;6.60;;;;;;;18.13;64.08;97884.97;4483188;32;20114;-81
2022/09/16 04:49:53;;;;;;;14.27;6.22;;;;;;;18.14;64.04;97885.81;4481685;32;20118;-81
2022/09/16 04:52:19;;;;;;;14.13;6.22;;;;;;;18.18;63.62;97890.69;4483427;32;20096;-82
2022/09/16 04:54:44;;;;;;;13.77;5.87;;;;;;;18.38;63.18;97878.00;4469172;32;20096;-82
2022/09/16 04:57:09;;;;;;;15.60;6.53;;;;;;;18.12;63.67;97893.97;4482916;32;20125;-82
2022/09/16 04:59:35;;;;;;;13.73;5.82;;;;;;;17.66;64.94;97893.16;4482485;32;20084;-80
2022/09/16 05:02:00;;;;;;;13.45;5.90;;;;;;;18.10;63.39;97885.31;4469395;32;20621;-80
2022/09/16 05:04:26;;;;;;;14.77;6.00;;;;;;;18.14;62.86;97889.34;4484365;32;20096;-82
2022/09/16 05:06:52;;;;;;;13.50;6.10;;;;;;;18.25;62.17;97902.44;4483620;32;20089;-80
2022/09/16 05:09:17;;;;;;;13.70;5.97;;;;;;;18.31;61.98;97894.78;4483836;32;20108;-80
2022/09/16 05:11:43;;;;;;;12.82;5.72;;;;;;;18.49;61.22;97898.25;4485317;32;20110;-82
2022/09/16 05:14:16;;;;;;;13.85;5.72;;;;;;;18.63;60.88;97892.34;4485476;32;20088;-82
2022/09/16 05:16:42;;;;;;;14.85;5.68;;;;;;;18.85;60.13;97893.69;4464687;32;20531;-82
2022/09/16 05:19:09;;;;;;;13.07;5.97;;;;;;;18.78;60.46;97897.94;4482638;32;20104;-82
2022/09/16 05:21:36;;;;;;;;;;;;;;;18.70;61.54;97905.06;4484648;32;20112;-83
2022/09/16 05:24:04;;;;;;;13.02;5.57;;;;;;;18.97;61.03;97904.09;4476038;32;19995;-81
2022/09/16 05:26:31;;;;;;;15.55;6.78;;;;;;;19.08;61.03;97900.31;4474718;32;20134;-80
2022/09/16 05:29:05;;;;;;;14.30;7.07;;;;;;;19.03;60.76;97903.47;4486788;32;20120;-82
2022/09/16 05:31:33;;;;;;;15.20;6.00;;;;;;;19.21;60.64;97908.72;4472850;32;20417;-83
2022/09/16 05:34:00;;;;;;;14.50;6.75;;;;;;;19.08;60.80;97913.66;4486696;31;20607;-83
2022/09/16 05:36:28;;;;;;;14.50;6.57;;;;;;;19.01;61.13;97921.47;4486773;32;20096;-85
2022/09/16 05:38:53;;;;;;;14.20;7.00;;;;;;;18.82;61.68;97923.34;4486884;32;20122;-83
2022/09/16 05:41:19;;;;;;;15.43;6.32;;;;;;;19.23;60.85;97917.41;4472168;32;20135;-82
2022/09/16 05:43:44;;;;;;;16.05;7.00;;;;;;;19.35;60.80;97910.75;4497850;31;20143;-81
2022/09/16 05:46:15;;;;;;;14.70;6.93;;;;;;;19.54;60.31;97911.50;4502592;31;20152;-84
2022/09/16 05:48:41;;;;;;;15.05;6.65;;;;;;;19.74;59.54;97912.94;4488429;31;20108;-82
2022/09/16 05:51:07;;;;;;;15.35;6.87;;;;;;;19.73;58.78;97921.94;4502956;31;20108;-82
2022/09/16 05:53:33;;;;;;;12.50;5.90;;;;;;;19.62;58.48;97924.88;4491197;31;20140;-84
2022/09/16 05:56:13;;;;;;;15.43;6.45;;;;;;;19.84;58.09;97918.16;4492000;31;20093;-82
2022/09/16 05:58:40;;;;;;;13.40;6.05;;;;;;;19.63;58.94;97908.69;4482472;32;20108;-81
2022/09/16 06:01:08;;;;;;;12.75;6.00;;;;;;;18.76;60.33;97913.28;4483912;31;20104;-81
2022/09/16 06:03:35;;;;;;;11.98;5.95;;;;;;;19.29;58.81;97902.56;4497773;31;20088;-82
2022/09/16 06:06:11;;;;;;;13.18;5.78;;;;;;;18.84;59.54;97912.53;4487053;31;20597;-80
2022/09/16 06:08:37;;;;;;;14.07;5.65;;;;;;;19.34;58.73;97900.28;4482717;32;20174;-80
2022/09/16 06:11:05;;;;;;;17.08;7.45;;;;;;;19.24;58.16;97900.41;4480110;32;20096;-79
2022/09/16 06:13:30;;;;;;;13.07;5.40;;;;;;;18.98;58.15;97895.91;4497723;31;20435;-82
2022/09/16 06:15:56;;;;;;;13.23;5.82;;;;;;;19.37;57.51;97899.94;4486047;31;20102;-82
2022/09/16 06:18:23;;;;;;;14.25;6.00;;;;;;;19.35;57.96;97909.94;4485773;32;20140;-84
2022/09/16 06:20:49;;;;;;;13.95;5.07;;;;;;;19.64;57.03;97907.72;4487118;31;20115;-82
2022/09/16 06:23:15;;;;;;;15.18;5.57;;;;;;;19.88;56.15;97911.47;4484697;32;20142;-81
2022/09/16 06:25:41;;;;;;;12.63;5.55;;;;;;;19.90;55.84;97920.16;4486641;31;20088;-80
2022/09/16 06:28:08;;;;;;;11.30;5.50;;;;;;;19.75;56.87;97921.78;4486958;32;20088;-80
2022/09/16 06:30:33;;;;;;;13.15;5.90;;;;;;;19.87;56.48;97922.31;4486914;31;20457;-81
2022/09/16 06:32:59;;;;;;;12.68;5.20;;;;;;;19.80;55.43;97920.31;4486602;32;20104;-81
2022/09/16 06:35:24;;;;;;;11.98;4.85;;;;;;;20.27;54.89;97910.84;4486517;31;20076;-80
2022/09/16 06:37:49;;;;;;;12.32;5.50;;;;;;;20.19;55.11;97910.84;4486271;31;20088;-80
2022/09/16 06:40:16;;;;;;;12.35;5.35;;;;;;;20.11;54.78;97911.69;4486594;31;20080;-80
2022/09/16 06:42:41;;;;;;;13.68;5.35;;;;;;;20.17;54.79;97919.03;4486335;31;20115;-82
2022/09/16 06:45:07;;;;;;;12.90;5.40;;;;;;;20.25;53.88;97915.53;4486369;31;20349;-81
2022/09/16 06:47:32;;;;;;;12.25;5.43;;;;;;;19.76;55.61;97926.13;4486384;31;20269;-80
2022/09/16 06:49:59;;;;;;;14.65;5.62;;;;;;;20.08;55.02;97911.16;4486391;31;20115;-81
2022/09/16 06:52:25;;;;;;;10.98;5.10;;;;;;;20.12;54.84;97912.50;4486333;31;20451;-81
2022/09/16 06:54:50;;;;;;;12.48;5.00;;;;;;;20.37;53.74;97918.69;4485241;32;20128;-81
2022/09/16 06:57:18;;;;;;;11.35;5.05;;;;;;;20.59;53.88;97915.38;4484915;32;20177;-81
2022/09/16 06:59:44;;;;;;;11.85;4.78;;;;;;;20.45;53.62;97915.19;4485101;32;20476;-81
2022/09/16 07:02:10;;;;;;;11.73;4.95;;;;;;;20.42;53.61;97921.72;4486049;31;20100;-81
2022/09/16 07:04:36;;;;;;;19.85;6.00;;;;;;;20.72;52.79;97919.38;4486168;31;20084;-81
2022/09/16 07:07:02;;;;;;;14.77;5.40;;;;;;;20.55;53.42;97921.19;4486016;31;20148;-80
2022/09/16 07:09:27;;;;;;;13.07;5.30;;;;;;;20.71;53.48;97923.06;4485883;32;20136;-81
2022/09/16 07:11:54;;;;;;;12.27;5.50;;;;;;;20.69;52.88;97925.06;4485986;31;20084;-80
2022/09/16 07:14:19;;;;;;;13.70;4.75;;;;;;;20.96;52.03;97927.37;4484924;32;20076;-80
2022/09/16 07:16:45;;;;;;;11.40;5.12;;;;;;;21.16;52.07;97927.81;4486051;31;20501;-81
2022/09/16 07:19:10;;;;;;;10.57;4.40;;;;;;;21.23;52.03;97929.78;4485999;31;20092;-81
2022/09/16 07:21:36;;;;;;;16.23;5.05;;;;;;;20.81;52.59;97931.75;4484504;32;20092;-81
2022/09/16 07:24:02;;;;;;;17.98;5.45;;;;;;;21.04;52.17;97939.91;4485911;31;20081;-81
2022/09/16 07:26:30;;;;;;;11.35;4.12;;;;;;;21.25;51.75;97943.84;4485907;31;20144;-81
2022/09/16 07:28:58;;;;;;;10.35;3.97;;;;;;;21.35;50.46;97939.97;4485761;31;20114;-81
2022/09/16 07:31:25;;;;;;;10.68;4.05;;;;;;;21.13;51.55;97940.69;4484678;32;20119;-81
2022/09/16 07:33:53;;;;;;;9.98;3.75;;;;;;;21.22;50.85;97945.03;4485810;31;20068;-81
2022/09/16 07:36:21;;;;;;;10.40;4.25;;;;;;;20.42;52.69;97943.13;4484557;32;20123;-81
2022/09/16 07:38:47;;;;;;;10.32;3.80;;;;;;;21.16;51.49;97946.56;4484469;32;20127;-81
2022/09/16 07:41:14;;;;;;;10.82;4.20;;;;;;;21.25;52.06;97946.50;4484477;32;20187;-81
2022/09/16 07:43:40;;;;;;;10.95;4.75;;;;;;;21.08;50.99;97949.25;4487920;31;20431;-81
2022/09/16 07:46:07;;;;;;;10.23;4.10;;;;;;;19.99;53.73;97961.97;4486748;32;20262;-81
2022/09/16 07:48:33;;;;;;;9.70;4.28;;;;;;;20.36;53.56;97955.31;4486800;32;20126;-81
2022/09/16 07:51:07;;;;;;;9.77;4.00;;;;;;;20.10;54.62;97958.13;4486717;32;20075;-81
2022/09/16 07:53:33;;;;;;;10.18;3.55;;;;;;;20.37;54.03;97953.47;4486780;32;20103;-81
2022/09/16 07:56:03;;;;;;;10.00;4.00;;;;;;;20.33;52.36;97954.81;4486747;32;20100;-81
2022/09/16 07:58:28;;;;;;;10.65;4.10;;;;;;;20.35;52.00;97953.63;4486625;32;20092;-81
2022/09/16 08:00:53;;;;;;;11.48;4.10;;;;;;;20.36;51.98;97958.00;4486429;31;41015;-81
2022/09/16 08:03:19;;;;;;;9.70;3.80;;;;;;;20.45;51.91;97953.47;4487707;31;20498;-81
2022/09/16 08:05:44;;;;;;;9.82;3.92;;;;;;;20.22;52.77;97964.84;4487476;31;20115;-80
2022/09/16 08:08:10;;;;;;;11.20;3.85;;;;;;;19.55;54.58;97963.97;4487958;32;20088;-81
2022/09/16 08:10:38;;;;;;;10.20;3.80;;;;;;;20.26;52.03;97959.13;4487958;31;20341;-81
2022/09/16 08:13:05;;;;;;;11.45;4.00;;;;;;;20.42;51.33;97970.69;4486804;32;20076;-81
2022/09/16 08:15:31;;;;;;;10.02;3.97;;;;;;;20.30;51.63;97966.69;4486896;32;20101;-81
2022/09/16 08:17:56;;;;;;;11.15;4.30;;;;;;;19.88;53.05;97970.28;4486820;32;20122;-81
2022/09/16 08:20:23;;;;;;;9.50;3.78;;;;;;;20.00;52.48;97974.31;4487901;31;20084;-81
2022/09/16 08:22:48;;;;;;;10.65;3.60;;;;;;;20.04;52.64;97975.66;4487805;31;20098;-81
2022/09/16 08:25:14;;;;;;;9.95;3.65;;;;;;;20.19;51.43;97978.53;4488085;31;20438;-81
2022/09/16 08:27:39;;;;;;;10.98;3.42;;;;;;;20.01;51.96;97972.47;4486524;32;20116;-80
2022/09/16 08:30:05;;;;;;;12.02;3.53;;;;;;;20.33;51.00;97966.34;4487606;32;20092;-81
2022/09/16 08:32:31;;;;;;;8.82;3.20;;;;;;;20.12;51.47;97971.31;4487552;31;20121;-80
2022/09/16 08:34:56;;;;;;;9.88;3.62;;;;;;;20.72;50.80;97965.69;4487498;31;20157;-81
2022/09/16 08:37:22;;;;;;;11.95;3.80;;;;;;;20.22;52.09;97963.97;4487786;32;20161;-81
2022/09/16 08:39:47;;;;;;;9.75;3.58;;;;;;;20.39;50.60;97967.50;4487754;31;20103;-81
2022/09/16 08:42:27;;;;;;;10.00;3.47;;;;;;;20.06;51.88;97966.63;4487315;32;20416;-81
2022/09/16 08:45:24;;;;;;;8.50;2.97;;;;;;;20.04;51.48;97958.78;4487654;31;20111;-81
2022/09/16 08:48:09;;;;;;;8.85;3.30;;;;;;;20.76;49.88;97966.19;4486409;32;20100;-81
2022/09/16 08:50:38;;;;;;;9.02;3.15;;;;;;;20.66;50.42;97970.91;4487614;31;20522;-81
2022/09/16 08:53:17;;;;;;;8.52;3.22;;;;;;;20.93;49.84;97969.69;4485390;32;20080;-81
2022/09/16 08:55:46;;;;;;;8.23;3.00;;;;;;;21.06;49.33;97975.38;4486327;32;20114;-80
2022/09/16 08:58:17;;;;;;;9.30;3.00;;;;;;;20.99;48.99;97975.19;4486349;32;20108;-81
2022/09/16 09:00:46;;;;;;;7.85;3.00;;;;;;;21.15;48.06;97973.50;4487315;31;20521;-80
2022/09/16 09:03:32;;;;;;;9.45;3.00;;;;;;;21.30;47.07;97987.84;4486334;32;20072;-80
2022/09/16 09:05:58;;;;;;;9.60;3.10;;;;;;;21.17;47.54;97991.09;4487489;31;20104;-80
2022/09/16 09:08:27;;;;;;;8.75;3.28;;;;;;;21.39;46.88;97996.72;4486582;32;20123;-81
2022/09/16 09:11:01;;;;;;;8.23;2.78;;;;;;;21.55;47.12;97990.50;4487397;32;20119;-81
2022/09/16 09:13:39;;;;;;;8.90;2.90;;;;;;;21.26;46.91;97994.56;4487330;32;20492;-80
2022/09/16 09:16:16;;;;;;;10.90;3.22;;;;;;;21.48;46.84;97986.84;4487422;31;20136;-80
2022/09/16 09:18:41;;;;;;;6.87;2.35;;;;;;;21.55;45.87;97977.09;4487245;32;20115;-81
2022/09/16 09:21:25;;;;;;;10.68;3.05;;;;;;;21.66;45.36;97973.22;4487310;32;20088;-81
2022/09/16 09:24:05;;;;;;;8.43;2.50;;;;;;;21.77;45.27;97968.28;4487311;31;20095;-81
2022/09/16 09:26:42;;;;;;;8.63;2.35;;;;;;;22.08;44.82;97966.59;4487349;32;20096;-81
2022/09/16 09:29:44;;;;;;;9.57;3.00;;;;;;;21.96;44.82;97972.41;4485997;32;20111;-81
2022/09/16 09:32:18;;;;;;;8.07;2.58;;;;;;;21.95;45.19;97964.53;4487414;31;20783;-81
2022/09/16 09:34:52;;;;;;;7.68;2.42;;;;;;;21.89;44.47;97968.75;4487199;32;20072;-81
2022/09/16 09:38:05;;;;;;;11.18;3.10;;;;;;;22.19;43.81;97972.44;4487196;32;20114;-81
2022/09/16 09:41:00;;;;;;;9.10;2.50;;;;;;;21.84;44.85;97963.06;4422749;32;20163;-81
2022/09/16 09:43:50;;;;;;;7.15;2.20;;;;;;;22.20;44.49;97965.19;4362429;32;20391;-81
2022/09/16 09:46:34;;;;;;;9.13;2.45;;;;;;;22.43;43.98;97970.59;4362604;32;20087;-81
2022/09/16 09:49:11;;;;;;;8.00;2.80;;;;;;;22.50;43.55;97968.03;4362617;32;20103;-81
2022/09/16 09:52:00;;;;;;;8.40;2.20;;;;;;;22.20;43.63;97975.94;4362637;32;20107;-81
2022/09/16 09:54:25;;;;;;;;;;;;;;;22.15;41.71;97971.09;4362719;32;20147;-80
2022/09/16 09:56:56;;;;;;;6.70;2.40;;;;;;;22.67;41.83;97958.81;4362592;32;20008;-81
2022/09/16 09:59:33;;;;;;;7.93;2.53;;;;;;;22.99;42.15;97951.50;4362537;32;20178;-81
2022/09/16 10:02:01;;;;;;;7.57;2.08;;;;;;;22.69;40.90;97958.66;4362336;32;20129;-81
2022/09/16 10:04:36;;;;;;;9.15;2.30;;;;;;;23.12;40.02;97942.81;4361852;32;20483;-81
2022/09/16 10:07:03;;;;;;;6.45;1.95;;;;;;;23.19;39.46;97942.91;4361958;32;20107;-81
2022/09/16 10:09:29;;;;;;;6.95;2.00;;;;;;;23.19;39.40;97943.75;4362259;32;20100;-81
2022/09/16 10:11:55;;;;;;;4.40;1.60;;;;;;;22.95;37.73;97939.44;4361963;32;20153;-81
2022/09/16 10:14:31;;;;;;;7.18;1.73;;;;;;;23.20;35.85;97947.25;4387981;32;20469;-81
2022/09/16 10:17:01;;;;;;;5.43;1.83;;;;;;;23.34;36.89;97947.25;4422586;32;20097;-81
2022/09/16 10:19:29;;;;;;;6.57;1.98;;;;;;;23.14;36.80;97952.38;4420856;32;20104;-80
2022/09/16 10:22:18;;;;;;;5.40;1.48;;;;;;;22.95;37.94;97951.03;4485530;32;20112;-81
2022/09/16 10:24:53;;;;;;;6.47;1.70;;;;;;;23.03;37.03;97952.81;4477327;31;20092;-82
2022/09/16 10:27:26;;;;;;;7.25;1.67;;;;;;;22.89;36.12;97954.44;4485666;32;20148;-81
2022/09/16 10:30:12;;;;;;;5.35;1.48;;;;;;;22.62;36.76;97955.00;4485549;32;20126;-81
2022/09/16 10:32:57;;;;;;;6.40;1.35;;;;;;;22.91;34.92;97946.22;4486694;31;20149;-81
2022/09/16 10:35:28;;;;;;;5.25;1.48;;;;;;;23.06;35.23;97948.91;4486663;31;20088;-81
2022/09/16 10:38:00;;;;;;;4.95;1.58;;;;;;;23.09;35.08;97945.88;4485432;32;20211;-81
2022/09/16 10:40:26;;;;;;;4.45;1.20;;;;;;;23.09;35.40;97940.50;4485472;32;20131;-81
2022/09/16 10:42:53;;;;;;;6.82;1.48;;;;;;;22.75;35.36;97944.50;4486435;31;20127;-81
2022/09/16 10:45:29;;;;;;;3.90;1.20;;;;;;;23.01;35.31;97948.63;4485262;32;20160;-81
2022/09/16 10:47:58;;;;;;;6.28;1.48;;;;;;;22.97;36.15;97948.97;4485164;32;20104;-81
2022/09/16 10:50:24;;;;;;;5.57;1.20;;;;;;;23.19;35.92;97942.91;4485224;32;20104;-81
2022/09/16 10:52:50;;;;;;;5.20;1.55;;;;;;;23.19;34.73;97945.59;4485454;32;20108;-81
2022/09/16 10:55:20;;;;;;;5.22;1.37;;;;;;;23.00;35.86;97939.72;4485514;32;20546;-81
2022/09/16 10:57:46;;;;;;;5.93;1.55;;;;;;;23.11;36.83;97950.03;4485175;32;20111;-81
2022/09/16 11:00:17;;;;;;;6.62;1.50;;;;;;;23.16;37.72;97947.66;4486326;31;20097;-82
2022/09/16 11:03:13;;;;;;;6.07;1.65;;;;;;;22.89;37.92;97945.53;4484887;32;20139;-81
2022/09/16 11:05:54;;;;;;;5.30;1.75;;;;;;;23.26;39.02;97951.91;4486313;31;20146;-80
2022/09/16 11:08:38;;;;;;;5.22;1.50;;;;;;;23.42;39.20;97949.03;4486285;31;20114;-81
2022/09/16 11:11:23;;;;;;;6.62;1.90;;;;;;;23.68;39.57;97956.63;4486144;31;20136;-81
2022/09/16 11:14:06;;;;;;;4.62;1.45;;;;;;;23.64;39.52;97952.63;4486095;31;20096;-81
2022/09/16 11:17:10;;;;;;;5.68;1.70;;;;;;;23.86;38.83;97950.03;4486403;32;20102;-81
2022/09/16 11:19:50;;;;;;;6.65;1.77;;;;;;;23.30;38.27;97951.34;4488217;31;20084;-81
2022/09/16 11:22:16;;;;;;;4.35;1.52;;;;;;;23.61;38.01;97952.16;4488056;32;20154;-81
2022/09/16 11:24:54;;;;;;;6.20;1.70;;;;;;;23.70;38.00;97957.25;4488054;32;20100;-81
2022/09/16 11:27:54;;;;;;;5.45;1.73;;;;;;;23.79;38.44;97949.09;4486979;32;20480;-81
2022/09/16 11:30:21;;;;;;;8.35;1.80;;;;;;;24.06;37.17;97943.00;4486959;32;20148;-81
2022/09/16 11:33:02;;;;;;;7.07;1.85;;;;;;;24.03;38.26;97940.69;4486779;32;20100;-81
2022/09/16 11:35:58;;;;;;;7.07;2.15;;;;;;;24.06;38.42;97932.22;4488280;31;20092;-81
2022/09/16 11:38:37;;;;;;;8.48;1.98;;;;;;;23.89;38.44;97931.66;4486792;32;20084;-81
2022/09/16 11:41:09;;;;;;;6.93;1.98;;;;;;;23.02;40.24;97931.47;4486838;32;20092;-81
2022/09/16 11:43:56;;;;;;;9.95;1.90;;;;;;;24.04;38.41;97931.59;4486754;32;20473;-81
2022/09/16 11:46:37;;;;;;;7.10;2.00;;;;;;;23.86;37.80;97923.94;4488055;31;20092;-81
2022/09/16 11:49:20;;;;;;;6.32;1.87;;;;;;;24.22;37.90;97920.41;4488176;31;20125;-81
2022/09/16 11:51:45;;;;;;;5.50;1.67;;;;;;;23.86;37.39;97923.13;4488033;32;20076;-81